VABB/BOM METAR and TAF weather

Enter ICAO airport designator
Station Type Date Time Source
VABB METAR 2022/12/04 10:30 UTC NOAA

VABB 041030Z 27008KT 2200 FU FEW020 SCT100 31/22 Q1009 NOSIG


Station Type Date Time Source
VABB Decoded METAR 2022/12/04 10:30 UTC NOAA

Bombay / Santacruz, India (VABB) 19-07N 072-51E 14M
Dec 04, 2022 - 05:30 AM EST / 2022.12.04 1030 UTC
Wind: from the W (270 degrees) at 9 MPH (8 KT):0
Visibility: 1 mile(s):0
Sky conditions: partly cloudy
Weather: smoke
Temperature: 87 F (31 C)
Heat index: 92.3 F (33.5 C):1
Dew Point: 71 F (22 C)
Relative Humidity: 58%
Pressure (altimeter): 29.80 in. Hg (1009 hPa)
ob: VABB 041030Z 27008KT 2200 FU FEW020 SCT100 31/22 Q1009 NOSIG
cycle: 10

Station Type Date Time Source
VABB TAF 2022/12/04 12:42 UTC NOAA

TAF VABB 041100Z 0412/0518 31008KT 2500 FU FEW020 SCT100
BECMG 0415/0417 04003KT 2000 FU
BECMG 0422/0424 SCT100
TEMPO 0501/0503 1500 BR HZ
BECMG 0503/0505 07005KT 2000 FU
BECMG 0507/0509 26005KT 2500 FU HZ
BECMG 0512/0514 34008KT 2000 HZ FU

Example: see airport list